Weather at Viva Heliport Baldushk

Public forecast

Using degrees Celsius for public forecast. Weather courtesy of forecast.io.

Closest aviation weather report (METAR) to Viva Heliport Baldushk

Report is more than 2 hours old.

Closest report is Tirana International Airport Mother Teresa, 11.6 nm (21.6 km) NNW.

2024/06/24 21:20 (retrieved 6 hours ago)

LATI 242120Z 21004KT 170V230 CAVOK 23/21 Q1012 NOSIG

Closest aviation forecast (TAF) to Viva Heliport Baldushk

Forecast is more than 6 hours old.

Closest forecast is Tirana International Airport Mother Teresa, 11.6 nm (21.6 km) NNW.

2024/06/24 18:15 (retrieved 9 hours ago)

TAF TAF LATI 241700Z 2418/2518 VRB04KT CAVOK TX34/2512Z TN21/2503Z TEMPO 2511/2518 32012KT FEW040CB